createdAt,value
2022-11-16T00:00:05.922Z,6.60
2022-11-16T00:02:55.192Z,6.55
2022-11-16T00:05:28.191Z,6.57
2022-11-16T00:07:58.586Z,6.56
2022-11-16T00:10:26.950Z,6.55
2022-11-16T00:12:55.208Z,6.55
2022-11-16T00:15:23.514Z,6.55
2022-11-16T00:17:51.736Z,6.55
2022-11-16T00:20:20.146Z,6.57
2022-11-16T00:22:48.503Z,6.55
2022-11-16T00:25:16.801Z,6.55
2022-11-16T00:27:44.922Z,6.57
2022-11-16T00:30:13.636Z,6.59
2022-11-16T00:32:42.136Z,6.61
2022-11-16T00:35:10.383Z,6.59
2022-11-16T00:37:39.111Z,6.58
2022-11-16T00:40:08.311Z,6.59
2022-11-16T00:42:36.703Z,6.59
2022-11-16T00:45:05.301Z,6.62
2022-11-16T00:47:33.819Z,6.62
2022-11-16T00:50:02.241Z,6.62
2022-11-16T00:52:30.788Z,6.62
2022-11-16T00:54:59.576Z,6.63
2022-11-16T00:57:28.183Z,6.68
2022-11-16T00:59:56.497Z,6.71
2022-11-16T01:02:24.913Z,6.70
2022-11-16T01:04:53.627Z,6.74
2022-11-16T01:07:21.986Z,6.73
2022-11-16T01:09:50.282Z,6.71
2022-11-16T01:12:18.764Z,6.74
2022-11-16T01:14:48.024Z,6.70
2022-11-16T01:17:16.441Z,6.67
2022-11-16T01:19:44.633Z,6.68
2022-11-16T01:22:12.893Z,6.64
2022-11-16T01:24:41.518Z,6.67
2022-11-16T01:27:09.799Z,6.65
2022-11-16T01:29:38.182Z,6.64
2022-11-16T01:32:07.059Z,6.64
2022-11-16T01:34:36.007Z,6.64
2022-11-16T01:37:04.912Z,6.64
2022-11-16T01:39:33.109Z,6.61
2022-11-16T01:42:01.625Z,6.55
2022-11-16T01:44:32.879Z,6.54
2022-11-16T01:47:06.654Z,6.55
2022-11-16T01:49:41.953Z,6.53
2022-11-16T01:52:20.625Z,6.51
2022-11-16T01:54:52.012Z,6.51
2022-11-16T01:57:28.376Z,6.49
2022-11-16T02:00:00.161Z,6.48
2022-11-16T02:02:28.707Z,6.51
2022-11-16T02:04:58.993Z,6.51
2022-11-16T02:07:59.227Z,6.49
2022-11-16T02:10:59.380Z,6.45
2022-11-16T02:13:49.611Z,6.47
2022-11-16T02:16:52.047Z,6.46
2022-11-16T02:19:41.612Z,6.46
2022-11-16T02:22:37.860Z,6.46
2022-11-16T02:25:30.135Z,6.46
2022-11-16T02:28:37.286Z,6.46
2022-11-16T02:31:13.406Z,6.40
2022-11-16T02:33:45.705Z,6.44
2022-11-16T02:36:21.219Z,6.47
2022-11-16T02:39:05.938Z,6.47
2022-11-16T02:41:39.868Z,6.43
2022-11-16T02:44:16.026Z,6.45
2022-11-16T02:46:48.780Z,6.44
2022-11-16T02:49:21.701Z,6.46
2022-11-16T02:51:53.455Z,6.47
2022-11-16T02:54:24.923Z,6.44
2022-11-16T02:57:15.269Z,6.43
2022-11-16T02:59:48.966Z,6.44
2022-11-16T03:02:35.105Z,6.42
2022-11-16T03:05:12.051Z,6.43
2022-11-16T03:07:46.647Z,6.45
2022-11-16T03:10:37.922Z,6.52
2022-11-16T03:13:10.418Z,6.53
2022-11-16T03:15:41.809Z,6.50
2022-11-16T03:18:14.744Z,6.53
2022-11-16T03:20:44.326Z,6.54
2022-11-16T03:23:14.070Z,6.56
2022-11-16T03:25:51.254Z,6.56
2022-11-16T03:28:29.361Z,6.55
2022-11-16T03:31:13.291Z,6.51
2022-11-16T03:33:48.950Z,6.51
2022-11-16T03:36:51.880Z,6.52
2022-11-16T03:39:26.093Z,6.47
2022-11-16T03:41:57.480Z,6.47
2022-11-16T03:44:26.948Z,6.47
2022-11-16T03:46:55.199Z,6.49
2022-11-16T03:49:23.998Z,6.47
2022-11-16T03:51:52.383Z,6.43
2022-11-16T03:54:20.894Z,6.44
2022-11-16T03:56:49.195Z,6.39
2022-11-16T03:59:17.410Z,6.42
2022-11-16T04:01:45.537Z,6.44
2022-11-16T04:04:33.872Z,6.45
2022-11-16T04:07:21.270Z,6.44
2022-11-16T04:10:08.538Z,6.44
2022-11-16T04:12:57.598Z,6.38
2022-11-16T04:15:44.197Z,6.36
2022-11-16T04:18:31.237Z,6.36
2022-11-16T04:21:18.883Z,6.37
2022-11-16T04:24:07.675Z,6.37
2022-11-16T04:26:56.480Z,6.34
2022-11-16T04:29:25.616Z,6.37
2022-11-16T04:32:12.374Z,6.44
2022-11-16T04:34:58.999Z,6.44
2022-11-16T04:37:45.897Z,6.44
2022-11-16T04:40:18.278Z,6.39
2022-11-16T04:42:59.325Z,6.41
2022-11-16T04:45:47.319Z,6.42
2022-11-16T04:48:17.696Z,6.42
2022-11-16T04:50:47.799Z,6.44
2022-11-16T04:53:16.736Z,6.44
2022-11-16T04:55:44.950Z,6.49
2022-11-16T04:58:13.209Z,6.52
2022-11-16T05:00:41.338Z,6.54
2022-11-16T05:03:09.478Z,6.52
2022-11-16T05:05:37.639Z,6.53
2022-11-16T05:08:05.996Z,6.56
2022-11-16T05:10:34.226Z,6.59
2022-11-16T05:13:02.375Z,6.58
2022-11-16T05:15:30.485Z,6.59
2022-11-16T05:17:58.783Z,6.58
2022-11-16T05:20:45.581Z,6.58
2022-11-16T05:23:33.696Z,6.55
2022-11-16T05:26:02.027Z,6.52
2022-11-16T05:28:30.201Z,6.52
2022-11-16T05:30:58.490Z,6.50
2022-11-16T05:33:26.710Z,6.53
2022-11-16T05:35:54.817Z,6.55
2022-11-16T05:38:23.046Z,6.55
2022-11-16T05:40:51.716Z,6.55
2022-11-16T05:43:19.873Z,6.53
2022-11-16T05:45:47.793Z,6.53
2022-11-16T05:48:16.076Z,6.50
2022-11-16T05:50:44.240Z,6.49
2022-11-16T05:53:12.391Z,6.50
2022-11-16T05:55:40.766Z,6.50
2022-11-16T05:58:09.088Z,6.50
2022-11-16T06:00:37.298Z,6.50
2022-11-16T06:03:05.571Z,6.51
2022-11-16T06:05:40.445Z,6.51
2022-11-16T06:08:20.081Z,6.44
2022-11-16T06:10:48.258Z,6.43
2022-11-16T06:13:17.148Z,6.47
2022-11-16T06:15:51.841Z,6.49
2022-11-16T06:18:20.396Z,6.48
2022-11-16T06:20:48.884Z,6.47
2022-11-16T06:23:17.118Z,6.45
2022-11-16T06:25:45.712Z,6.45
2022-11-16T06:28:14.077Z,6.48
2022-11-16T06:30:42.257Z,6.53
2022-11-16T06:33:10.467Z,6.61
2022-11-16T06:35:38.687Z,6.61
2022-11-16T06:38:06.878Z,6.62
2022-11-16T06:40:35.314Z,6.63
2022-11-16T06:43:03.888Z,6.63
2022-11-16T06:45:32.111Z,6.64
2022-11-16T06:48:00.347Z,6.66
2022-11-16T06:50:28.491Z,6.69
2022-11-16T06:52:56.848Z,6.69
2022-11-16T06:55:24.982Z,6.70
2022-11-16T06:57:53.360Z,6.69
2022-11-16T07:00:22.082Z,6.66
2022-11-16T07:02:50.289Z,6.70
2022-11-16T07:05:18.432Z,6.68
2022-11-16T07:07:47.467Z,6.68
2022-11-16T07:10:15.687Z,6.63
2022-11-16T07:12:43.847Z,6.62
2022-11-16T07:15:12.102Z,6.64
2022-11-16T07:17:40.417Z,6.69
2022-11-16T07:20:10.078Z,6.69
2022-11-16T07:22:38.336Z,6.70
2022-11-16T07:25:07.275Z,6.73
2022-11-16T07:27:35.359Z,6.72
2022-11-16T07:30:04.379Z,6.74
2022-11-16T07:32:32.893Z,6.76
2022-11-16T07:35:01.132Z,6.75
2022-11-16T07:37:29.485Z,6.75
2022-11-16T07:39:57.773Z,6.72
2022-11-16T07:42:26.172Z,6.71
2022-11-16T07:44:54.368Z,6.72
2022-11-16T07:47:22.547Z,6.69
2022-11-16T07:49:50.944Z,6.67
2022-11-16T07:52:19.147Z,6.69
2022-11-16T07:54:47.391Z,6.67
2022-11-16T07:57:15.670Z,6.69
2022-11-16T07:59:43.737Z,6.71
2022-11-16T08:02:12.495Z,6.68
2022-11-16T08:04:40.681Z,6.68
2022-11-16T08:07:09.008Z,6.66
2022-11-16T08:09:38.180Z,6.66
2022-11-16T08:12:06.616Z,6.71
2022-11-16T08:14:34.918Z,6.73
2022-11-16T08:17:04.066Z,6.74
2022-11-16T08:19:32.556Z,6.74
2022-11-16T08:22:00.890Z,6.73
2022-11-16T08:24:29.237Z,6.74
2022-11-16T08:26:59.173Z,6.76
2022-11-16T08:29:27.300Z,6.74
2022-11-16T08:31:55.896Z,6.71
2022-11-16T08:34:24.251Z,6.69
2022-11-16T08:36:52.817Z,6.73
2022-11-16T08:39:20.759Z,6.74
2022-11-16T08:41:48.997Z,6.69
2022-11-16T08:44:18.200Z,6.76
2022-11-16T08:46:46.376Z,6.82
2022-11-16T08:49:14.578Z,6.82
2022-11-16T08:51:42.805Z,6.83
2022-11-16T08:54:11.137Z,6.87
2022-11-16T08:56:39.317Z,6.84
2022-11-16T08:59:08.037Z,6.81
2022-11-16T09:01:36.293Z,6.83
2022-11-16T09:04:04.740Z,6.77
2022-11-16T09:06:32.927Z,6.74
2022-11-16T09:09:01.846Z,6.71
2022-11-16T09:11:30.671Z,6.76
2022-11-16T09:13:59.331Z,6.84
2022-11-16T09:16:28.135Z,6.84
2022-11-16T09:18:56.891Z,6.93
2022-11-16T09:21:28.148Z,6.93
2022-11-16T09:23:58.210Z,6.87
2022-11-16T09:26:26.879Z,6.87
2022-11-16T09:28:58.328Z,6.81
2022-11-16T09:31:28.576Z,6.78
2022-11-16T09:33:59.262Z,6.78
2022-11-16T09:36:29.428Z,6.82
2022-11-16T09:42:20.074Z,6.89
2022-11-16T09:45:13.056Z,6.97
2022-11-16T09:48:00.022Z,7.01
2022-11-16T09:50:53.394Z,7.12
2022-11-16T09:53:42.598Z,7.20
2022-11-16T09:56:37.800Z,7.25
2022-11-16T09:59:32.319Z,7.36
2022-11-16T10:02:21.440Z,7.47
2022-11-16T10:05:26.096Z,7.47
2022-11-16T10:08:47.766Z,7.48
2022-11-16T10:11:50.255Z,7.43
2022-11-16T10:15:02.317Z,7.52
2022-11-16T10:17:51.867Z,7.60
2022-11-16T10:20:58.810Z,7.67
2022-11-16T10:23:50.404Z,7.71
2022-11-16T10:26:32.361Z,7.60
2022-11-16T10:29:19.557Z,7.70
2022-11-16T10:32:03.468Z,7.80
2022-11-16T10:34:58.367Z,7.80
2022-11-16T10:37:32.299Z,7.82
2022-11-16T10:40:23.397Z,7.73
2022-11-16T10:43:05.953Z,7.66
2022-11-16T10:46:02.601Z,7.59
2022-11-16T10:48:51.487Z,7.52
2022-11-16T10:51:20.003Z,7.52
2022-11-16T10:53:48.541Z,7.55
2022-11-16T10:56:17.881Z,7.54
2022-11-16T10:58:59.323Z,7.55
2022-11-16T11:01:43.707Z,7.51
2022-11-16T11:04:25.524Z,7.53
2022-11-16T11:07:00.538Z,7.46
2022-11-16T11:09:43.624Z,7.31
2022-11-16T11:12:39.301Z,7.26
2022-11-16T11:15:27.472Z,7.19
2022-11-16T11:18:26.365Z,7.18
2022-11-16T11:21:21.089Z,7.18
2022-11-16T11:23:52.702Z,7.26
2022-11-16T11:26:37.603Z,7.31
2022-11-16T11:29:26.116Z,7.40
2022-11-16T11:32:20.747Z,7.43
2022-11-16T11:34:56.401Z,7.42
2022-11-16T11:37:31.182Z,7.49
2022-11-16T11:40:20.492Z,7.53
2022-11-16T11:42:54.597Z,7.55
2022-11-16T11:45:43.222Z,7.49
2022-11-16T11:48:17.156Z,7.45
2022-11-16T11:51:09.224Z,7.44
2022-11-16T11:53:56.302Z,7.33
2022-11-16T11:56:26.479Z,7.22
2022-11-16T11:58:55.672Z,7.18
2022-11-16T12:01:42.698Z,7.11
2022-11-16T12:04:23.798Z,6.96
2022-11-16T12:07:30.946Z,6.94
2022-11-16T12:10:32.069Z,6.89
2022-11-16T12:13:34.889Z,6.88
2022-11-16T12:16:12.661Z,6.90
2022-11-16T12:18:53.840Z,6.88
2022-11-16T12:21:40.116Z,6.62
2022-11-16T12:24:26.600Z,6.28
2022-11-16T12:27:20.502Z,6.08
2022-11-16T12:30:04.122Z,5.99
2022-11-16T12:33:16.865Z,5.82
2022-11-16T12:36:02.178Z,5.69
2022-11-16T12:38:40.262Z,5.69
2022-11-16T12:41:44.192Z,5.73
2022-11-16T12:44:44.403Z,5.66
2022-11-16T12:47:24.581Z,5.48
2022-11-16T12:50:36.927Z,5.47
2022-11-16T12:53:23.124Z,5.36
2022-11-16T12:56:25.461Z,5.37
2022-11-16T12:59:14.863Z,5.32
2022-11-16T13:02:10.236Z,5.25
2022-11-16T13:04:57.865Z,5.10
2022-11-16T13:07:44.230Z,5.00
2022-11-16T13:10:28.205Z,4.96
2022-11-16T13:16:00.776Z,4.93
2022-11-16T13:18:32.083Z,4.89
2022-11-16T13:21:18.929Z,4.89
2022-11-16T13:24:00.640Z,4.80
2022-11-16T13:26:45.486Z,4.75
2022-11-16T13:29:19.326Z,4.69
2022-11-16T13:32:08.192Z,4.67
2022-11-16T13:34:45.397Z,4.74
2022-11-16T13:37:47.688Z,4.80
2022-11-16T13:40:24.035Z,4.72
2022-11-16T13:43:10.379Z,4.68
2022-11-16T13:46:00.015Z,4.61
2022-11-16T13:48:54.512Z,4.55
2022-11-16T13:51:23.307Z,4.49
2022-11-16T13:56:51.734Z,4.45
2022-11-16T13:59:39.787Z,4.44
2022-11-16T14:02:35.269Z,4.41
2022-11-16T14:05:16.419Z,4.38
2022-11-16T14:07:50.123Z,4.35
2022-11-16T14:10:50.658Z,4.39
2022-11-16T14:13:39.869Z,4.35
2022-11-16T14:16:20.209Z,4.25
2022-11-16T14:19:01.180Z,4.25
2022-11-16T14:21:51.704Z,4.21
2022-11-16T14:24:51.016Z,4.17
2022-11-16T14:27:49.934Z,4.08
2022-11-16T14:30:27.006Z,4.04
2022-11-16T14:32:57.715Z,4.03
2022-11-16T14:35:37.241Z,4.05
2022-11-16T14:38:36.854Z,4.02
2022-11-16T14:41:10.838Z,3.99
2022-11-16T14:43:46.021Z,3.97
2022-11-16T14:46:26.478Z,4.07
2022-11-16T14:48:58.090Z,4.05
2022-11-16T14:51:38.040Z,4.06
2022-11-16T14:54:32.524Z,3.98
2022-11-16T14:57:04.347Z,3.97
2022-11-16T14:59:32.953Z,3.96
2022-11-16T15:02:22.403Z,3.96
2022-11-16T15:04:52.750Z,3.93
2022-11-16T15:07:24.494Z,3.98
2022-11-16T15:09:55.661Z,4.02
2022-11-16T15:12:43.344Z,3.95
2022-11-16T15:15:11.569Z,3.96
2022-11-16T15:17:42.711Z,3.94
2022-11-16T15:20:14.159Z,3.94
2022-11-16T15:22:51.319Z,4.00
2022-11-16T15:25:34.671Z,4.00
2022-11-16T15:28:15.526Z,3.99
2022-11-16T15:30:55.065Z,3.98
2022-11-16T15:33:43.460Z,4.02
2022-11-16T15:36:31.613Z,3.97
2022-11-16T15:39:02.694Z,3.96
2022-11-16T15:41:31.695Z,3.99
2022-11-16T15:44:15.294Z,3.98
2022-11-16T15:46:52.058Z,4.02
2022-11-16T15:49:38.634Z,4.06
2022-11-16T15:52:07.465Z,4.11
2022-11-16T15:54:54.748Z,4.15
2022-11-16T15:57:28.911Z,4.17
2022-11-16T15:59:59.559Z,4.26
2022-11-16T16:02:30.580Z,4.26
2022-11-16T16:04:58.937Z,4.26
2022-11-16T16:07:37.710Z,4.25
2022-11-16T16:10:20.986Z,4.20
2022-11-16T16:13:00.595Z,4.22
2022-11-16T16:15:48.752Z,4.20
2022-11-16T16:18:40.680Z,4.17
2022-11-16T16:21:13.394Z,4.17
2022-11-16T16:23:48.579Z,4.19
2022-11-16T16:26:17.697Z,4.17
2022-11-16T16:28:46.596Z,4.20
2022-11-16T16:31:17.526Z,4.23
2022-11-16T16:33:46.236Z,4.21
2022-11-16T16:36:23.385Z,4.28
2022-11-16T16:38:53.072Z,4.21
2022-11-16T16:41:24.584Z,4.21
2022-11-16T16:43:53.575Z,4.29
2022-11-16T16:46:22.026Z,4.29
2022-11-16T16:48:50.242Z,4.29
2022-11-16T16:51:18.463Z,4.30
2022-11-16T16:53:49.122Z,4.31
2022-11-16T16:56:19.608Z,4.34
2022-11-16T16:58:47.846Z,4.34
2022-11-16T17:01:16.219Z,4.32
2022-11-16T17:03:44.797Z,4.36
2022-11-16T17:06:13.255Z,4.38
2022-11-16T17:08:41.428Z,4.32
2022-11-16T17:11:10.316Z,4.37
2022-11-16T17:13:39.979Z,4.36
2022-11-16T17:16:11.296Z,4.34
2022-11-16T17:18:45.121Z,4.36
2022-11-16T17:21:13.363Z,4.35
2022-11-16T17:23:41.574Z,4.38
2022-11-16T17:26:10.135Z,4.45
2022-11-16T17:28:40.179Z,4.46
2022-11-16T17:31:10.634Z,4.50
2022-11-16T17:33:41.394Z,4.53
2022-11-16T17:36:15.176Z,4.52
2022-11-16T17:39:02.394Z,4.47
2022-11-16T17:41:49.139Z,4.42
2022-11-16T17:44:26.954Z,4.44
2022-11-16T17:46:55.133Z,4.39
2022-11-16T17:49:40.478Z,4.35
2022-11-16T17:52:09.948Z,4.33
2022-11-16T17:54:39.276Z,4.36
2022-11-16T17:57:08.807Z,4.36
2022-11-16T17:59:36.946Z,4.33
2022-11-16T18:02:05.462Z,4.29
2022-11-16T18:04:33.978Z,4.27
2022-11-16T18:07:02.993Z,4.27
2022-11-16T18:09:31.738Z,4.27
2022-11-16T18:12:00.144Z,4.26
2022-11-16T18:14:28.938Z,4.25
2022-11-16T18:16:57.202Z,4.20
2022-11-16T18:19:25.479Z,4.17
2022-11-16T18:21:53.537Z,4.09
2022-11-16T18:24:21.834Z,4.10
2022-11-16T18:26:50.126Z,4.11
2022-11-16T18:29:19.503Z,4.09
2022-11-16T18:31:47.887Z,4.17
2022-11-16T18:34:17.007Z,4.15
2022-11-16T18:36:46.759Z,4.14
2022-11-16T18:39:15.056Z,4.08
2022-11-16T18:41:48.787Z,4.07
2022-11-16T18:44:22.118Z,4.07
2022-11-16T18:46:50.714Z,4.10
2022-11-16T18:49:18.992Z,4.03
2022-11-16T18:51:47.397Z,4.08
2022-11-16T18:54:15.596Z,4.15
2022-11-16T18:56:43.798Z,4.07
2022-11-16T18:59:12.237Z,4.09
2022-11-16T19:01:40.899Z,4.12
2022-11-16T19:04:11.025Z,4.17
2022-11-16T19:06:39.380Z,4.21
2022-11-16T19:09:10.077Z,4.23
2022-11-16T19:11:38.729Z,4.24
2022-11-16T19:14:09.967Z,4.25
2022-11-16T19:16:43.410Z,4.23
2022-11-16T19:19:16.033Z,4.20
2022-11-16T19:21:44.322Z,4.19
2022-11-16T19:24:12.515Z,4.18
2022-11-16T19:26:40.817Z,4.16
2022-11-16T19:29:09.057Z,4.20
2022-11-16T19:31:37.436Z,4.25
2022-11-16T19:34:16.855Z,4.23
2022-11-16T19:36:45.073Z,4.22
2022-11-16T19:39:13.215Z,4.26
2022-11-16T19:41:41.640Z,4.21
2022-11-16T19:44:09.882Z,4.21
2022-11-16T19:46:38.238Z,4.27
2022-11-16T19:49:08.794Z,4.24
2022-11-16T19:51:37.253Z,4.24
2022-11-16T19:54:05.975Z,4.26
2022-11-16T19:56:34.295Z,4.23
2022-11-16T19:59:02.974Z,4.27
2022-11-16T20:01:31.631Z,4.26
2022-11-16T20:04:04.735Z,4.26
2022-11-16T20:06:36.812Z,4.28
2022-11-16T20:09:09.057Z,4.26
2022-11-16T20:11:40.297Z,4.24
2022-11-16T20:14:10.919Z,4.27
2022-11-16T20:16:43.362Z,4.31
2022-11-16T20:19:13.256Z,4.24
2022-11-16T20:21:47.655Z,4.19
2022-11-16T20:24:18.429Z,4.21
2022-11-16T20:26:49.094Z,4.27
2022-11-16T20:29:21.287Z,4.26
2022-11-16T20:31:49.653Z,4.29
2022-11-16T20:34:20.451Z,4.26
2022-11-16T20:36:51.830Z,4.20
2022-11-16T20:39:21.107Z,4.24
2022-11-16T20:41:49.602Z,4.27
2022-11-16T20:44:22.257Z,4.30
2022-11-16T20:46:52.824Z,4.27
2022-11-16T20:49:21.356Z,4.28
2022-11-16T20:51:51.405Z,4.32
2022-11-16T20:54:19.768Z,4.35
2022-11-16T20:56:51.074Z,4.36
2022-11-16T20:59:19.844Z,4.26
2022-11-16T21:01:48.997Z,4.24
2022-11-16T21:04:17.435Z,4.33
2022-11-16T21:06:45.726Z,4.26
2022-11-16T21:09:27.364Z,4.25
2022-11-16T21:12:28.170Z,4.32
2022-11-16T21:14:56.535Z,4.27
2022-11-16T21:17:24.772Z,4.32
2022-11-16T21:20:20.174Z,4.35
2022-11-16T21:22:42.668Z,4.35
2022-11-16T21:25:10.984Z,4.36
2022-11-16T21:27:39.090Z,4.37
2022-11-16T21:30:08.022Z,4.37
2022-11-16T21:32:51.531Z,4.35
2022-11-16T21:35:38.435Z,4.26
2022-11-16T21:38:06.925Z,4.29
2022-11-16T21:40:50.770Z,4.38
2022-11-16T21:43:40.568Z,4.36
2022-11-16T21:46:13.572Z,4.38
2022-11-16T21:49:00.960Z,4.35
2022-11-16T21:51:31.693Z,4.31
2022-11-16T21:54:18.814Z,4.27
2022-11-16T21:56:47.113Z,4.33
2022-11-16T21:59:33.952Z,4.27
2022-11-16T22:02:02.402Z,4.30
2022-11-16T22:05:08.599Z,4.25
2022-11-16T22:07:37.077Z,4.27
2022-11-16T22:10:24.338Z,4.24
2022-11-16T22:12:52.579Z,4.16
2022-11-16T22:15:39.678Z,4.15
2022-11-16T22:18:07.965Z,4.19
2022-11-16T22:20:55.346Z,4.21
2022-11-16T22:23:24.390Z,4.26
2022-11-16T22:26:13.685Z,4.22
2022-11-16T22:28:42.439Z,4.21
2022-11-16T22:31:29.691Z,4.23
2022-11-16T22:33:58.021Z,4.24
2022-11-16T22:36:45.243Z,4.24
2022-11-16T22:39:13.760Z,4.21
2022-11-16T22:41:57.716Z,4.14
2022-11-16T22:44:44.974Z,4.20
2022-11-16T22:47:13.262Z,4.20
2022-11-16T22:50:00.575Z,4.16
2022-11-16T22:52:29.402Z,4.10
2022-11-16T22:54:57.791Z,4.16
2022-11-16T22:57:44.722Z,4.17
2022-11-16T23:00:13.993Z,4.15
2022-11-16T23:03:01.160Z,4.15
2022-11-16T23:05:29.324Z,4.12
2022-11-16T23:07:57.732Z,4.18
2022-11-16T23:11:17.272Z,4.15
2022-11-16T23:14:04.482Z,4.12
2022-11-16T23:16:52.693Z,4.12
2022-11-16T23:19:41.232Z,4.13
2022-11-16T23:22:47.187Z,4.11
2022-11-16T23:25:34.035Z,4.05
2022-11-16T23:28:21.258Z,4.05
2022-11-16T23:30:49.702Z,4.09
2022-11-16T23:33:45.503Z,4.09
2022-11-16T23:36:15.253Z,3.97
2022-11-16T23:39:02.277Z,3.93
2022-11-16T23:41:49.364Z,3.95
2022-11-16T23:44:36.792Z,3.86
2022-11-16T23:47:05.306Z,3.85
2022-11-16T23:49:52.518Z,3.89
2022-11-16T23:52:21.063Z,3.91
2022-11-16T23:55:08.611Z,3.87
2022-11-16T23:57:36.896Z,3.83
